createdAt,value
2022-10-16T00:00:12.070Z,67.48
2022-10-16T00:01:12.122Z,64.51
2022-10-16T00:02:12.097Z,63.77
2022-10-16T00:03:12.055Z,66.82
2022-10-16T00:04:12.030Z,65.76
2022-10-16T00:05:12.042Z,63.42
2022-10-16T00:06:12.020Z,61.98
2022-10-16T00:07:12.673Z,60.97
2022-10-16T00:08:12.025Z,62.28
2022-10-16T00:09:11.994Z,62.60
2022-10-16T00:10:11.997Z,59.54
2022-10-16T00:11:11.981Z,60.92
2022-10-16T00:12:12.604Z,57.15
2022-10-16T00:13:11.966Z,62.70
2022-10-16T00:14:11.961Z,62.89
2022-10-16T00:15:11.945Z,62.96
2022-10-16T00:16:12.012Z,55.20
2022-10-16T00:17:11.934Z,62.60
2022-10-16T00:18:11.940Z,64.14
2022-10-16T00:19:11.926Z,55.94
2022-10-16T00:20:11.937Z,59.84
2022-10-16T00:21:11.901Z,59.20
2022-10-16T00:22:11.925Z,60.09
2022-10-16T00:23:11.893Z,58.28
2022-10-16T00:24:11.893Z,60.73
2022-10-16T00:25:11.872Z,61.19
2022-10-16T00:26:12.659Z,59.44
2022-10-16T00:27:11.859Z,61.47
2022-10-16T00:28:11.848Z,59.83
2022-10-16T00:31:11.901Z,61.18
2022-10-16T00:32:11.898Z,62.60
2022-10-16T00:33:11.880Z,59.73
2022-10-16T00:34:11.877Z,57.14
2022-10-16T00:35:11.868Z,59.35
2022-10-16T00:36:11.857Z,57.82
2022-10-16T00:37:12.760Z,60.91
2022-10-16T00:40:20.290Z,64.13
2022-10-16T00:41:20.287Z,61.65
2022-10-16T00:42:20.283Z,59.12
2022-10-16T00:43:20.265Z,52.72
2022-10-16T00:44:20.261Z,60.20
2022-10-16T00:45:20.268Z,60.70
2022-10-16T00:46:20.240Z,60.27
2022-10-16T00:47:20.235Z,61.97
2022-10-16T00:48:21.321Z,55.35
2022-10-16T00:49:21.324Z,59.67
2022-10-16T00:50:21.318Z,60.63
2022-10-16T00:51:21.305Z,60.17
2022-10-16T00:52:21.291Z,56.05
2022-10-16T00:53:21.283Z,60.63
2022-10-16T00:54:21.277Z,61.16
2022-10-16T00:55:21.275Z,63.08
2022-10-16T00:56:21.256Z,57.51
2022-10-16T00:57:21.251Z,61.42
2022-10-16T00:58:22.237Z,61.04
2022-10-16T00:59:21.239Z,63.48
2022-10-16T01:00:21.239Z,59.62
2022-10-16T01:01:21.320Z,59.58
2022-10-16T01:02:21.208Z,58.90
2022-10-16T01:03:21.196Z,60.39
2022-10-16T01:04:21.269Z,60.51
2022-10-16T01:05:21.178Z,54.63
2022-10-16T01:06:21.277Z,60.39
2022-10-16T01:07:21.168Z,60.34
2022-10-16T01:08:21.155Z,58.81
2022-10-16T01:09:21.145Z,62.46
2022-10-16T01:10:21.153Z,60.32
2022-10-16T01:11:21.161Z,61.91
2022-10-16T01:12:21.127Z,61.06
2022-10-16T01:13:21.117Z,61.14
2022-10-16T01:14:21.114Z,60.60
2022-10-16T01:15:22.727Z,60.11
2022-10-16T01:16:21.090Z,59.44
2022-10-16T01:17:21.099Z,58.41
2022-10-16T01:18:21.074Z,63.11
2022-10-16T01:19:21.079Z,61.11
2022-10-16T01:20:21.062Z,68.37
2022-10-16T01:21:21.052Z,62.44
2022-10-16T01:22:21.073Z,60.91
2022-10-16T01:23:21.035Z,60.51
2022-10-16T01:24:21.032Z,60.26
2022-10-16T01:25:21.020Z,62.50
2022-10-16T01:26:21.005Z,59.22
2022-10-16T01:27:21.011Z,60.90
2022-10-16T01:28:21.020Z,60.27
2022-10-16T01:29:20.992Z,55.84
2022-10-16T01:30:21.000Z,60.34
2022-10-16T01:31:20.970Z,58.54
2022-10-16T01:32:20.953Z,58.67
2022-10-16T01:33:20.949Z,61.46
2022-10-16T01:34:21.261Z,52.33
2022-10-16T01:35:20.948Z,58.74
2022-10-16T01:36:21.737Z,61.80
2022-10-16T01:37:21.921Z,58.95
2022-10-16T01:38:20.988Z,58.52
2022-10-16T01:39:20.905Z,57.84
2022-10-16T01:40:20.888Z,59.56
2022-10-16T01:41:20.878Z,56.44
2022-10-16T01:42:20.871Z,58.38
2022-10-16T01:43:20.861Z,56.07
2022-10-16T01:44:20.863Z,54.03
2022-10-16T01:45:20.856Z,60.39
2022-10-16T01:46:20.841Z,57.17
2022-10-16T01:47:21.262Z,59.95
2022-10-16T01:48:20.820Z,53.55
2022-10-16T01:49:20.819Z,60.02
2022-10-16T01:50:20.806Z,59.13
2022-10-16T01:51:20.815Z,54.99
2022-10-16T01:52:20.796Z,55.75
2022-10-16T01:53:20.786Z,57.61
2022-10-16T01:54:20.779Z,60.49
2022-10-16T01:55:20.767Z,60.03
2022-10-16T01:56:20.785Z,59.16
2022-10-16T01:57:20.780Z,58.33
2022-10-16T01:58:20.746Z,60.03
2022-10-16T01:59:20.731Z,52.05
2022-10-16T02:00:20.729Z,55.54
2022-10-16T02:01:20.779Z,53.56
2022-10-16T02:02:20.718Z,58.09
2022-10-16T02:03:20.711Z,59.16
2022-10-16T02:04:20.690Z,53.36
2022-10-16T02:05:20.686Z,59.25
2022-10-16T02:06:20.720Z,57.57
2022-10-16T02:07:20.693Z,55.17
2022-10-16T02:08:20.663Z,53.94
2022-10-16T02:09:20.661Z,58.06
2022-10-16T02:10:22.191Z,52.35
2022-10-16T02:11:23.292Z,49.90
2022-10-16T02:12:20.766Z,56.97
2022-10-16T02:13:20.632Z,56.98
2022-10-16T02:14:20.618Z,56.53
2022-10-16T02:15:20.619Z,59.71
2022-10-16T02:16:20.601Z,55.59
2022-10-16T02:17:20.605Z,63.54
2022-10-16T02:18:20.593Z,58.15
2022-10-16T02:19:20.586Z,53.99
2022-10-16T02:20:20.569Z,58.11
2022-10-16T02:21:20.563Z,54.51
2022-10-16T02:22:20.677Z,50.13
2022-10-16T02:23:20.541Z,59.72
2022-10-16T02:24:20.532Z,61.59
2022-10-16T02:25:20.538Z,57.92
2022-10-16T02:26:20.523Z,56.66
2022-10-16T02:27:20.513Z,53.54
2022-10-16T02:28:20.542Z,54.18
2022-10-16T02:29:20.499Z,58.54
2022-10-16T02:30:20.485Z,56.70
2022-10-16T02:31:20.488Z,58.16
2022-10-16T02:32:20.478Z,57.82
2022-10-16T02:33:20.473Z,52.36
2022-10-16T02:34:21.254Z,59.33
2022-10-16T02:35:20.450Z,56.39
2022-10-16T02:36:20.442Z,59.34
2022-10-16T02:37:20.460Z,58.23
2022-10-16T02:38:20.426Z,54.65
2022-10-16T02:39:20.416Z,55.88
2022-10-16T02:40:24.345Z,57.56
2022-10-16T02:41:20.423Z,55.61
2022-10-16T02:42:20.404Z,59.59
2022-10-16T02:43:24.180Z,58.67
2022-10-16T02:44:22.250Z,54.29
2022-10-16T02:45:20.374Z,54.12
2022-10-16T02:46:20.364Z,57.99
2022-10-16T02:47:20.373Z,52.55
2022-10-16T02:48:20.347Z,52.87
2022-10-16T02:49:20.478Z,59.14
2022-10-16T02:50:21.329Z,44.13
2022-10-16T02:51:20.354Z,57.55
2022-10-16T02:52:20.311Z,58.80
2022-10-16T02:53:20.317Z,52.95
2022-10-16T02:54:20.310Z,46.55
2022-10-16T02:55:20.297Z,55.82
2022-10-16T02:56:20.304Z,54.25
2022-10-16T02:57:20.281Z,59.35
2022-10-16T02:58:20.278Z,55.20
2022-10-16T02:59:20.263Z,57.79
2022-10-16T03:00:20.263Z,56.84
2022-10-16T03:01:20.331Z,53.89
2022-10-16T03:02:20.241Z,55.07
2022-10-16T03:03:20.238Z,53.95
2022-10-16T03:04:20.225Z,57.51
2022-10-16T03:06:20.199Z,53.66
2022-10-16T03:07:20.200Z,58.53
2022-10-16T03:08:20.190Z,50.45
2022-10-16T03:09:21.766Z,55.83
2022-10-16T03:10:20.170Z,62.04
2022-10-16T03:11:20.167Z,62.54
2022-10-16T03:12:20.158Z,58.76
2022-10-16T03:13:20.148Z,52.17
2022-10-16T03:14:20.225Z,50.61
2022-10-16T03:15:20.132Z,55.15
2022-10-16T03:16:20.769Z,55.15
2022-10-16T03:17:20.117Z,53.80
2022-10-16T03:18:20.110Z,59.36
2022-10-16T03:19:20.118Z,49.03
2022-10-16T03:20:20.103Z,44.73
2022-10-16T03:21:20.089Z,56.06
2022-10-16T03:22:20.082Z,56.64
2022-10-16T03:23:20.125Z,55.33
2022-10-16T03:24:20.061Z,49.29
2022-10-16T03:25:20.057Z,48.83
2022-10-16T03:26:20.051Z,56.31
2022-10-16T03:27:20.035Z,44.47
2022-10-16T03:28:20.159Z,57.68
2022-10-16T03:29:20.026Z,55.61
2022-10-16T03:30:20.693Z,52.80
2022-10-16T03:31:21.721Z,57.36
2022-10-16T03:32:20.010Z,58.11
2022-10-16T03:33:19.998Z,62.66
2022-10-16T03:34:19.984Z,58.66
2022-10-16T03:35:19.977Z,56.37
2022-10-16T03:36:19.971Z,60.84
2022-10-16T03:37:19.963Z,52.40
2022-10-16T03:38:19.951Z,55.11
2022-10-16T03:39:19.944Z,60.02
2022-10-16T03:40:19.959Z,50.81
2022-10-16T03:41:19.928Z,56.90
2022-10-16T03:42:19.920Z,54.88
2022-10-16T03:43:19.936Z,58.52
2022-10-16T03:44:19.905Z,57.06
2022-10-16T03:45:19.911Z,59.83
2022-10-16T03:46:19.884Z,56.74
2022-10-16T03:47:19.892Z,50.59
2022-10-16T03:48:19.870Z,56.16
2022-10-16T03:49:19.864Z,55.81
2022-10-16T03:50:20.784Z,45.04
2022-10-16T03:51:19.843Z,58.15
2022-10-16T03:53:19.831Z,56.23
2022-10-16T03:54:19.824Z,55.39
2022-10-16T03:55:19.815Z,55.29
2022-10-16T03:56:19.809Z,52.59
2022-10-16T03:57:19.815Z,54.01
2022-10-16T03:58:19.794Z,54.21
2022-10-16T03:59:19.781Z,51.54
2022-10-16T04:00:19.789Z,48.81
2022-10-16T04:01:19.793Z,51.11
2022-10-16T04:02:19.752Z,56.40
2022-10-16T04:03:19.752Z,55.18
2022-10-16T04:04:19.738Z,55.39
2022-10-16T04:05:19.737Z,53.34
2022-10-16T04:06:19.727Z,53.54
2022-10-16T04:07:19.720Z,55.00
2022-10-16T04:08:19.701Z,60.27
2022-10-16T04:09:19.708Z,50.87
2022-10-16T04:10:20.694Z,54.76
2022-10-16T04:11:19.684Z,54.34
2022-10-16T04:12:19.673Z,55.06
2022-10-16T04:14:19.665Z,58.21
2022-10-16T04:15:19.649Z,62.05
2022-10-16T04:16:19.641Z,57.64
2022-10-16T04:17:19.677Z,56.60
2022-10-16T04:18:19.640Z,55.12
2022-10-16T04:19:19.623Z,60.90
2022-10-16T04:20:19.615Z,58.13
2022-10-16T04:21:19.605Z,59.54
2022-10-16T04:22:19.645Z,53.81
2022-10-16T04:23:19.591Z,58.13
2022-10-16T04:24:20.209Z,59.67
2022-10-16T04:25:19.582Z,58.68
2022-10-16T04:26:19.571Z,57.81
2022-10-16T04:27:19.561Z,58.16
2022-10-16T04:28:19.592Z,54.25
2022-10-16T04:29:19.543Z,52.89
2022-10-16T04:30:19.526Z,60.85
2022-10-16T04:31:19.523Z,58.72
2022-10-16T04:32:19.529Z,46.56
2022-10-16T04:33:19.509Z,58.16
2022-10-16T04:34:19.506Z,55.78
2022-10-16T04:35:19.499Z,51.32
2022-10-16T04:36:19.482Z,44.50
2022-10-16T04:37:20.215Z,56.77
2022-10-16T04:38:19.472Z,69.66
2022-10-16T04:39:19.469Z,68.48
2022-10-16T04:40:19.461Z,63.20
2022-10-16T04:41:19.458Z,57.73
2022-10-16T04:42:19.661Z,56.56
2022-10-16T04:43:19.471Z,56.24
2022-10-16T04:44:19.423Z,59.84
2022-10-16T04:45:19.418Z,55.75
2022-10-16T04:46:19.401Z,52.09
2022-10-16T04:47:19.393Z,60.22
2022-10-16T04:48:19.404Z,62.04
2022-10-16T04:49:19.378Z,57.20
2022-10-16T04:50:19.382Z,54.47
2022-10-16T04:51:19.359Z,53.75
2022-10-16T04:52:19.354Z,61.56
2022-10-16T04:53:19.361Z,55.32
2022-10-16T04:54:19.331Z,54.30
2022-10-16T04:55:19.331Z,55.52
2022-10-16T04:56:19.315Z,56.00
2022-10-16T04:57:19.322Z,61.98
2022-10-16T04:58:19.300Z,56.31
2022-10-16T04:59:19.300Z,58.50
2022-10-16T05:00:19.294Z,61.12
2022-10-16T05:01:20.276Z,62.89
2022-10-16T05:02:19.283Z,63.56
2022-10-16T05:03:19.470Z,71.83
2022-10-16T05:04:19.264Z,57.56
2022-10-16T05:05:19.245Z,50.29
2022-10-16T05:06:19.241Z,58.87
2022-10-16T05:07:19.240Z,46.79
2022-10-16T05:08:19.229Z,58.08
2022-10-16T05:09:19.212Z,60.93
2022-10-16T05:10:19.205Z,52.27
2022-10-16T05:11:19.194Z,52.12
2022-10-16T05:12:19.198Z,56.92
2022-10-16T05:13:19.186Z,58.56
2022-10-16T05:14:19.179Z,59.94
2022-10-16T05:15:19.162Z,53.03
2022-10-16T05:16:19.156Z,56.51
2022-10-16T05:17:19.166Z,57.38
2022-10-16T05:18:19.321Z,61.88
2022-10-16T05:19:27.690Z,54.07
2022-10-16T05:20:21.126Z,52.59
2022-10-16T05:21:19.123Z,50.85
2022-10-16T05:22:19.110Z,57.64
2022-10-16T05:23:19.114Z,55.06
2022-10-16T05:24:19.094Z,54.03
2022-10-16T05:25:19.085Z,52.90
2022-10-16T05:26:19.805Z,61.55
2022-10-16T05:27:19.068Z,47.53
2022-10-16T05:28:19.121Z,49.98
2022-10-16T05:29:19.052Z,48.10
2022-10-16T05:30:19.041Z,58.04
2022-10-16T05:31:20.722Z,56.41
2022-10-16T05:32:19.024Z,58.23
2022-10-16T05:33:19.019Z,59.35
2022-10-16T05:34:19.016Z,44.92
2022-10-16T05:35:19.003Z,59.02
2022-10-16T05:36:18.995Z,61.11
2022-10-16T05:37:18.993Z,58.82
2022-10-16T05:38:18.974Z,59.09
2022-10-16T05:39:18.979Z,55.59
2022-10-16T05:40:18.986Z,50.35
2022-10-16T05:41:18.949Z,52.70
2022-10-16T05:42:18.952Z,55.61
2022-10-16T05:43:18.954Z,44.90
2022-10-16T05:44:19.732Z,51.57
2022-10-16T05:45:18.924Z,57.35
2022-10-16T05:46:18.908Z,54.50
2022-10-16T05:47:18.901Z,59.91
2022-10-16T05:48:18.889Z,57.37
2022-10-16T05:49:18.904Z,57.18
2022-10-16T05:50:18.877Z,53.39
2022-10-16T05:51:18.876Z,59.03
2022-10-16T05:52:18.867Z,58.42
2022-10-16T05:53:18.856Z,49.98
2022-10-16T05:54:18.846Z,58.32
2022-10-16T05:55:18.833Z,48.35
2022-10-16T05:56:18.833Z,60.02
2022-10-16T05:57:18.822Z,58.60
2022-10-16T05:58:18.820Z,57.36
2022-10-16T05:59:18.805Z,54.17
2022-10-16T06:00:18.800Z,51.38
2022-10-16T06:01:18.935Z,50.23
2022-10-16T06:02:18.781Z,54.12
2022-10-16T06:03:18.789Z,59.49
2022-10-16T06:04:18.768Z,54.68
2022-10-16T06:05:18.769Z,55.29
2022-10-16T06:06:18.751Z,45.27
2022-10-16T06:07:18.756Z,56.98
2022-10-16T06:08:18.751Z,50.97
2022-10-16T06:09:18.742Z,52.58
2022-10-16T06:10:18.720Z,47.33
2022-10-16T06:11:19.739Z,54.14
2022-10-16T06:12:18.703Z,51.10
2022-10-16T06:13:18.842Z,56.60
2022-10-16T06:14:18.712Z,56.31
2022-10-16T06:15:18.690Z,46.17
2022-10-16T06:16:18.672Z,59.27
2022-10-16T06:17:18.661Z,57.80
2022-10-16T06:18:18.656Z,54.54
2022-10-16T06:19:18.658Z,58.85
2022-10-16T06:20:18.648Z,64.97
2022-10-16T06:21:18.639Z,62.55
2022-10-16T06:22:18.623Z,63.08
2022-10-16T06:23:18.608Z,57.93
2022-10-16T06:24:18.608Z,60.05
2022-10-16T06:25:18.590Z,58.29
2022-10-16T06:26:18.595Z,57.58
2022-10-16T06:27:18.577Z,60.10
2022-10-16T06:28:19.275Z,57.14
2022-10-16T06:29:18.574Z,60.57
2022-10-16T06:30:18.553Z,65.17
2022-10-16T06:31:18.545Z,53.58
2022-10-16T06:32:18.535Z,51.52
2022-10-16T06:33:18.532Z,60.42
2022-10-16T06:34:18.528Z,54.04
2022-10-16T06:35:18.520Z,54.56
2022-10-16T06:36:18.526Z,60.96
2022-10-16T06:37:18.509Z,56.84
2022-10-16T06:38:18.488Z,57.61
2022-10-16T06:39:18.480Z,59.94
2022-10-16T06:40:18.480Z,56.32
2022-10-16T06:41:18.470Z,63.98
2022-10-16T06:42:18.638Z,60.87
2022-10-16T06:43:18.445Z,61.68
2022-10-16T06:44:18.435Z,54.85
2022-10-16T06:45:19.456Z,57.62
2022-10-16T06:46:18.431Z,61.69
2022-10-16T06:47:18.413Z,55.71
2022-10-16T06:48:19.328Z,59.28
2022-10-16T06:49:18.399Z,61.68
2022-10-16T06:50:19.278Z,63.22
2022-10-16T06:51:18.380Z,51.77
2022-10-16T06:52:18.371Z,57.43
2022-10-16T06:53:18.378Z,59.79
2022-10-16T06:54:18.363Z,59.53
2022-10-16T06:55:18.353Z,60.79
2022-10-16T06:56:18.346Z,61.00
2022-10-16T06:57:18.337Z,62.39
2022-10-16T06:58:18.323Z,56.70
2022-10-16T06:59:18.310Z,52.97
2022-10-16T07:00:18.366Z,59.57
2022-10-16T07:01:18.328Z,61.19
2022-10-16T07:02:18.299Z,60.24
2022-10-16T07:03:18.281Z,63.67
2022-10-16T07:04:18.292Z,60.15
2022-10-16T07:05:18.273Z,59.08
2022-10-16T07:06:18.263Z,60.71
2022-10-16T07:07:18.261Z,58.59
2022-10-16T07:08:18.241Z,62.47
2022-10-16T07:09:18.313Z,61.58
2022-10-16T07:10:18.226Z,57.02
2022-10-16T07:11:18.215Z,58.48
2022-10-16T07:12:18.212Z,57.42
2022-10-16T07:13:18.199Z,57.44
2022-10-16T07:14:18.196Z,60.07
2022-10-16T07:15:18.181Z,59.11
2022-10-16T07:16:18.185Z,57.99
2022-10-16T07:17:18.179Z,60.03
2022-10-16T07:18:18.163Z,60.42
2022-10-16T07:19:18.152Z,55.59
2022-10-16T07:20:19.758Z,59.75
2022-10-16T07:21:18.842Z,60.73
2022-10-16T07:22:18.144Z,63.00
2022-10-16T07:23:18.112Z,59.55
2022-10-16T07:24:18.120Z,63.09
2022-10-16T07:25:18.098Z,58.54
2022-10-16T07:26:18.086Z,61.17
2022-10-16T07:27:18.094Z,62.77
2022-10-16T07:28:18.084Z,62.30
2022-10-16T07:29:18.843Z,61.93
2022-10-16T07:30:18.060Z,64.42
2022-10-16T07:31:18.059Z,61.28
2022-10-16T07:32:18.054Z,60.77
2022-10-16T07:33:18.044Z,63.49
2022-10-16T07:34:18.035Z,63.41
2022-10-16T07:35:18.022Z,60.70
2022-10-16T07:36:18.771Z,61.87
2022-10-16T07:37:18.012Z,64.69
2022-10-16T07:38:18.003Z,63.25
2022-10-16T07:39:17.993Z,64.28
2022-10-16T07:40:17.984Z,63.14
2022-10-16T07:41:17.983Z,64.36
2022-10-16T07:42:17.983Z,63.82
2022-10-16T07:43:17.978Z,62.35
2022-10-16T07:44:17.954Z,62.17
2022-10-16T07:45:17.942Z,62.52
2022-10-16T07:46:17.930Z,60.99
2022-10-16T07:47:17.921Z,59.99
2022-10-16T07:48:18.929Z,61.78
2022-10-16T07:49:17.909Z,62.16
2022-10-16T07:50:17.902Z,61.63
2022-10-16T07:51:17.899Z,63.82
2022-10-16T07:52:17.893Z,61.05
2022-10-16T07:53:20.542Z,60.37
2022-10-16T07:54:17.876Z,62.48
2022-10-16T07:55:17.879Z,61.61
2022-10-16T07:56:17.869Z,62.07
2022-10-16T07:57:17.862Z,63.59
2022-10-16T07:58:17.872Z,62.32
2022-10-16T07:59:17.842Z,63.47
2022-10-16T08:00:17.823Z,63.10
2022-10-16T08:01:17.881Z,62.24
2022-10-16T08:02:18.811Z,61.67
2022-10-16T08:03:17.794Z,62.96
2022-10-16T08:04:17.795Z,64.23
2022-10-16T08:05:17.788Z,62.42
2022-10-16T08:06:19.707Z,62.30
2022-10-16T08:07:17.782Z,60.80
2022-10-16T08:08:17.756Z,61.52
2022-10-16T08:09:17.761Z,62.07
2022-10-16T08:10:17.741Z,62.63
2022-10-16T08:11:17.737Z,62.63
2022-10-16T08:12:17.717Z,64.12
2022-10-16T08:13:18.727Z,61.61
2022-10-16T08:14:17.717Z,61.31
2022-10-16T08:15:17.716Z,63.72
2022-10-16T08:16:17.708Z,61.49
2022-10-16T08:17:18.426Z,62.35
2022-10-16T08:18:17.677Z,61.10
2022-10-16T08:19:17.699Z,62.31
2022-10-16T08:20:17.681Z,63.51
2022-10-16T08:21:21.440Z,64.34
2022-10-16T08:22:17.648Z,64.41
2022-10-16T08:23:17.636Z,62.23
2022-10-16T08:24:17.639Z,62.54
2022-10-16T08:25:17.631Z,61.26
2022-10-16T08:26:17.612Z,58.96
2022-10-16T08:27:17.614Z,62.59
2022-10-16T08:28:17.604Z,61.98
2022-10-16T08:29:17.594Z,61.25
2022-10-16T08:30:17.578Z,63.86
2022-10-16T08:31:18.362Z,58.70
2022-10-16T08:32:17.574Z,61.76
2022-10-16T08:33:17.569Z,60.82
2022-10-16T08:34:17.564Z,61.96
2022-10-16T08:35:17.549Z,62.72
2022-10-16T08:36:18.288Z,62.20
2022-10-16T08:37:17.541Z,60.55
2022-10-16T08:38:17.533Z,60.17
2022-10-16T08:39:17.515Z,63.51
2022-10-16T08:40:17.566Z,61.57
2022-10-16T08:41:17.506Z,62.93
2022-10-16T08:42:17.672Z,62.26
2022-10-16T08:43:17.484Z,62.51
2022-10-16T08:44:17.477Z,63.23
2022-10-16T08:45:17.478Z,61.72
2022-10-16T08:46:17.464Z,63.16
2022-10-16T08:47:17.450Z,61.06
2022-10-16T08:48:18.454Z,59.92
2022-10-16T08:49:18.368Z,62.15
2022-10-16T08:50:17.450Z,64.55
2022-10-16T08:51:17.423Z,64.81
2022-10-16T08:52:17.433Z,61.50
2022-10-16T08:53:17.414Z,64.04
2022-10-16T08:54:17.406Z,63.41
2022-10-16T08:55:17.393Z,61.82
2022-10-16T08:56:17.388Z,63.73
2022-10-16T08:57:21.280Z,63.95
2022-10-16T08:58:19.380Z,61.75
2022-10-16T08:59:17.358Z,59.58
2022-10-16T09:00:17.377Z,62.74
2022-10-16T09:01:17.452Z,64.02
2022-10-16T09:02:17.339Z,62.05
2022-10-16T09:03:17.330Z,64.76
2022-10-16T09:04:17.316Z,62.61
2022-10-16T09:05:17.315Z,63.01
2022-10-16T09:06:17.299Z,62.16
2022-10-16T09:07:18.304Z,60.77
2022-10-16T09:08:17.306Z,61.92
2022-10-16T09:09:17.274Z,62.95
2022-10-16T09:10:17.270Z,62.37
2022-10-16T09:11:17.278Z,62.63
2022-10-16T09:12:17.264Z,63.19
2022-10-16T09:13:17.251Z,61.18
2022-10-16T09:14:17.236Z,63.75
2022-10-16T09:15:17.244Z,61.78
2022-10-16T09:16:17.235Z,60.63
2022-10-16T09:17:17.219Z,60.14
2022-10-16T09:18:17.220Z,62.74
2022-10-16T09:19:17.200Z,64.10
2022-10-16T09:20:17.200Z,65.73
2022-10-16T09:21:17.186Z,68.53
2022-10-16T09:22:17.187Z,62.76
2022-10-16T09:23:17.186Z,63.58
2022-10-16T09:24:17.153Z,62.39
2022-10-16T09:25:17.159Z,60.98
2022-10-16T09:26:17.872Z,63.21
2022-10-16T09:27:17.132Z,63.10
2022-10-16T09:28:17.125Z,63.23
2022-10-16T09:29:17.109Z,64.92
2022-10-16T09:30:17.124Z,66.91
2022-10-16T09:31:17.110Z,62.96
2022-10-16T09:32:17.091Z,62.05
2022-10-16T09:33:17.143Z,62.25
2022-10-16T09:34:17.074Z,63.94
2022-10-16T09:35:17.087Z,62.27
2022-10-16T09:36:17.057Z,64.29
2022-10-16T09:37:17.054Z,63.42
2022-10-16T09:38:17.050Z,62.31
2022-10-16T09:39:17.057Z,62.16
2022-10-16T09:40:17.031Z,63.48
2022-10-16T09:41:17.012Z,63.28
2022-10-16T09:42:18.018Z,62.83
2022-10-16T09:43:17.010Z,63.77
2022-10-16T09:44:17.006Z,63.34
2022-10-16T09:45:17.011Z,63.14
2022-10-16T09:46:17.035Z,61.85
2022-10-16T09:47:16.977Z,63.19
2022-10-16T09:48:16.975Z,63.70
2022-10-16T09:49:16.981Z,64.62
2022-10-16T09:50:18.038Z,64.20
2022-10-16T09:51:16.947Z,64.92
2022-10-16T09:52:16.950Z,63.29
2022-10-16T09:53:16.947Z,64.34
2022-10-16T09:54:16.933Z,63.56
2022-10-16T09:55:16.934Z,62.44
2022-10-16T09:56:16.921Z,62.33
2022-10-16T09:57:16.913Z,63.41
2022-10-16T09:58:16.911Z,60.42
2022-10-16T09:59:17.816Z,63.24
2022-10-16T10:00:16.939Z,65.06
2022-10-16T10:01:16.869Z,63.40
2022-10-16T10:02:16.865Z,62.20
2022-10-16T10:03:16.867Z,64.47
2022-10-16T10:04:16.866Z,62.02
2022-10-16T10:05:16.848Z,64.31
2022-10-16T10:06:16.830Z,63.17
2022-10-16T10:07:16.824Z,62.34
2022-10-16T10:08:16.913Z,64.12
2022-10-16T10:09:16.820Z,62.40
2022-10-16T10:10:16.822Z,61.97
2022-10-16T10:11:16.798Z,63.41
2022-10-16T10:12:16.801Z,63.50
2022-10-16T10:13:16.788Z,62.59
2022-10-16T10:14:16.776Z,63.23
2022-10-16T10:15:16.799Z,63.14
2022-10-16T10:16:16.756Z,63.44
2022-10-16T10:17:16.749Z,64.16
2022-10-16T10:18:17.281Z,67.29
2022-10-16T10:19:17.321Z,64.01
2022-10-16T10:20:16.747Z,64.85
2022-10-16T10:21:16.720Z,65.62
2022-10-16T10:22:16.705Z,65.20
2022-10-16T10:23:16.701Z,60.97
2022-10-16T10:24:16.708Z,64.43
2022-10-16T10:25:16.712Z,62.54
2022-10-16T10:26:16.682Z,64.04
2022-10-16T10:27:16.666Z,62.68
2022-10-16T10:28:16.665Z,64.34
2022-10-16T10:29:16.645Z,63.64
2022-10-16T10:31:16.636Z,61.69
2022-10-16T10:32:16.623Z,62.69
2022-10-16T10:33:16.619Z,62.52
2022-10-16T10:34:16.610Z,60.91
2022-10-16T10:35:16.614Z,65.50
2022-10-16T10:36:16.598Z,65.69
2022-10-16T10:37:16.584Z,62.90
2022-10-16T10:38:16.579Z,63.83
2022-10-16T10:39:16.631Z,62.96
2022-10-16T10:40:16.556Z,62.23
2022-10-16T10:41:16.546Z,63.45
2022-10-16T10:42:16.750Z,63.91
2022-10-16T10:43:16.532Z,63.14
2022-10-16T10:44:16.536Z,62.94
2022-10-16T10:45:16.513Z,61.40
2022-10-16T10:46:16.551Z,62.25
2022-10-16T10:47:16.505Z,61.11
2022-10-16T10:48:16.575Z,61.03
2022-10-16T10:49:16.481Z,63.24
2022-10-16T10:50:16.472Z,63.44
2022-10-16T10:51:16.473Z,64.43
2022-10-16T10:52:16.472Z,63.70
2022-10-16T10:53:16.458Z,63.46
2022-10-16T10:54:16.453Z,63.63
2022-10-16T10:55:16.453Z,61.50
2022-10-16T10:56:16.427Z,61.56
2022-10-16T10:57:16.415Z,63.61
2022-10-16T10:58:17.415Z,63.17
2022-10-16T10:59:16.411Z,64.05
2022-10-16T11:00:16.403Z,64.27
2022-10-16T11:01:16.410Z,64.61
2022-10-16T11:02:16.449Z,63.59
2022-10-16T11:03:16.917Z,65.27
2022-10-16T11:04:16.379Z,62.20
2022-10-16T11:05:16.364Z,63.81
2022-10-16T11:06:16.345Z,62.85
2022-10-16T11:07:16.345Z,61.97
2022-10-16T11:08:16.849Z,63.08
2022-10-16T11:11:23.172Z,64.34
2022-10-16T11:12:24.273Z,62.02
2022-10-16T11:13:24.253Z,61.89
2022-10-16T11:14:24.264Z,62.23
2022-10-16T11:15:24.239Z,62.57
2022-10-16T11:16:24.237Z,63.73
2022-10-16T11:17:24.514Z,60.89
2022-10-16T11:18:24.219Z,62.08
2022-10-16T11:19:24.222Z,64.12
2022-10-16T11:20:24.214Z,63.78
2022-10-16T11:21:28.719Z,63.32
2022-10-16T11:22:26.191Z,61.86
2022-10-16T11:23:24.169Z,63.20
2022-10-16T11:24:24.198Z,62.71
2022-10-16T11:25:24.158Z,63.49
2022-10-16T11:26:24.148Z,64.81
2022-10-16T11:27:25.284Z,63.59
2022-10-16T11:28:27.816Z,63.16
2022-10-16T11:29:26.120Z,63.43
2022-10-16T11:30:24.115Z,64.81
2022-10-16T11:31:24.106Z,63.76
2022-10-16T11:32:24.116Z,62.86
2022-10-16T11:33:24.111Z,63.48
2022-10-16T11:34:24.084Z,63.77
2022-10-16T11:35:24.075Z,64.03
2022-10-16T11:36:24.106Z,67.38
2022-10-16T11:37:24.306Z,61.14
2022-10-16T11:38:24.080Z,64.79
2022-10-16T11:39:24.050Z,64.31
2022-10-16T11:40:24.040Z,63.68
2022-10-16T11:41:24.030Z,62.30
2022-10-16T11:42:24.030Z,63.46
2022-10-16T11:43:24.033Z,63.71
2022-10-16T11:44:23.997Z,64.24
2022-10-16T11:45:24.035Z,64.09
2022-10-16T11:46:24.004Z,62.15
2022-10-16T11:47:46.396Z,63.93
2022-10-16T11:48:26.545Z,64.51
2022-10-16T11:49:23.965Z,62.81
2022-10-16T11:50:23.968Z,64.19
2022-10-16T11:51:23.948Z,64.09
2022-10-16T11:52:23.947Z,62.59
2022-10-16T11:53:23.956Z,63.61
2022-10-16T11:54:23.991Z,62.96
2022-10-16T11:55:24.144Z,63.86
2022-10-16T11:56:23.901Z,66.60
2022-10-16T11:57:24.213Z,62.77
2022-10-16T11:58:23.916Z,63.50
2022-10-16T11:59:23.885Z,61.82
2022-10-16T12:00:23.875Z,63.54
2022-10-16T12:02:24.002Z,64.63
2022-10-16T12:03:23.921Z,65.50
2022-10-16T12:04:23.850Z,66.82
2022-10-16T12:05:23.834Z,65.11
2022-10-16T12:06:23.822Z,63.30
2022-10-16T12:07:23.818Z,65.96
2022-10-16T12:08:23.825Z,65.09
2022-10-16T12:09:23.797Z,61.84
2022-10-16T12:10:26.696Z,63.33
2022-10-16T12:11:24.809Z,65.82
2022-10-16T12:12:24.185Z,63.94
2022-10-16T12:13:23.785Z,62.89
2022-10-16T12:14:23.762Z,63.26
2022-10-16T12:15:40.639Z,63.76
2022-10-16T12:16:25.765Z,64.22
2022-10-16T12:17:23.739Z,63.90
2022-10-16T12:18:23.729Z,66.92
2022-10-16T12:19:23.737Z,64.56
2022-10-16T12:20:23.714Z,64.12
2022-10-16T12:21:23.702Z,65.05
2022-10-16T12:22:23.855Z,69.86
2022-10-16T12:23:23.700Z,64.16
2022-10-16T12:24:23.681Z,62.51
2022-10-16T12:25:24.658Z,62.83
2022-10-16T12:26:23.678Z,63.60
2022-10-16T12:27:23.659Z,65.53
2022-10-16T12:28:23.719Z,66.08
2022-10-16T12:29:23.673Z,67.31
2022-10-16T12:30:23.647Z,64.61
2022-10-16T12:31:23.638Z,63.24
2022-10-16T12:32:41.879Z,63.42
2022-10-16T12:33:25.610Z,62.97
2022-10-16T12:34:23.611Z,62.20
2022-10-16T12:35:23.620Z,61.96
2022-10-16T12:36:25.013Z,65.32
2022-10-16T12:37:24.567Z,63.80
2022-10-16T12:38:23.559Z,63.90
2022-10-16T12:39:23.576Z,66.55
2022-10-16T12:40:23.557Z,65.03
2022-10-16T12:41:23.564Z,65.20
2022-10-16T12:42:23.542Z,65.26
2022-10-16T12:43:27.342Z,64.88
2022-10-16T12:44:26.144Z,64.62
2022-10-16T12:45:23.505Z,63.34
2022-10-16T12:46:24.170Z,64.10
2022-10-16T12:47:23.504Z,63.69
2022-10-16T12:48:29.114Z,63.52
2022-10-16T12:49:24.490Z,62.82
2022-10-16T12:50:23.516Z,64.30
2022-10-16T12:51:23.464Z,64.81
2022-10-16T12:52:23.571Z,64.34
2022-10-16T12:53:24.442Z,65.06
2022-10-16T12:54:23.445Z,64.28
2022-10-16T12:55:23.440Z,70.51
2022-10-16T12:56:23.417Z,67.35
2022-10-16T12:57:23.418Z,66.86
2022-10-16T12:58:23.418Z,65.97
2022-10-16T12:59:23.413Z,64.38
2022-10-16T13:00:23.454Z,64.81
2022-10-16T13:01:23.399Z,63.04
2022-10-16T13:02:23.373Z,63.45
2022-10-16T13:03:23.374Z,65.06